Capitol Logistics 979


VRMM
Malé International Airport
Male, MV
OKBK
Kuwait International Airport
Kuwait City, KW

Activity Log

Date Flight Route Aircraft Duration
12/23/2019 CPX979 L4C LELEM L894 KITAL P570 EMURU N563 ALPOB UL768 OBMON UL934 TOKMA UL602 ITNAS DEBTI DEBT2C B763 5h 23m
11/18/2019 CPX979 Not Available B763 5h 13m

Route Details

Aircraft Information
Primary: Boeing 767-300BDSF
Backup: Not Available
Route Data
Distance: 1638nm
Sched. Duration: 3h 29m
Avg. Duration: 5h 18m (+189m)
Times Flown: 2
Recm'd Route: Not Available
Planned Altitude: 34,000ft
Origin Wx: VRMM 270100Z 03008KT 9999 FEW019 27/24 Q1009 NOSIG
Dest. Wx: OKBK 270200Z 29005KT CAVOK 11/06 Q1019 NOSIG
Notes:

Financial History
Total Freight: 83,168lbs
Average Load: 41,584lbs/flt
Fuel Used: 98,870lbs
Avg. Fuel Used: 49,435lbs/flt
Fuel Expense: $118,644
Avg. Fuel Expense: $59,322
Avg. Fuel Cost: $1.20/lbs
Total Gross Income: $816,710
Pilot Pay: $468
Total Expenses: $88,309
Total Revenue: $607,331
Average Revenue: $408,354.89